Terminal Aerodrome Forecast
Issued by NWS

Home | Current Version | Previous Version | Graphics & Text | Print | Product List | Glossary On
Versions: 1 2 3 4 5 6 7 8 9 10 11 12 13 14 15 16 17 18
264
FTUS43 KICT 170520
TAFCNU
TAF
KCNU 170520Z 1706/1806 20005KT P6SM BKN040
     FM170800 VRB05KT P6SM SCT040 BKN150
     FM171000 28007KT P6SM SCT080
     FM180200 VRB05KT P6SM SKC=

USA.gov is the U.S. government's official web portal to all federal, state and local government web resources and services.